sensor_id;sensor_type;location;lat;lon;timestamp;temperature;humidity
64817;DHT22;53289;45.602;11.904;2022-09-02T00:01:38;18.90;76.10
64817;DHT22;53289;45.602;11.904;2022-09-02T00:04:05;18.90;76.20
64817;DHT22;53289;45.602;11.904;2022-09-02T00:06:33;18.90;76.20
64817;DHT22;53289;45.602;11.904;2022-09-02T00:09:00;18.80;76.20
64817;DHT22;53289;45.602;11.904;2022-09-02T00:11:31;18.90;76.10
64817;DHT22;53289;45.602;11.904;2022-09-02T00:14:04;18.80;76.10
64817;DHT22;53289;45.602;11.904;2022-09-02T00:16:30;18.70;76.40
64817;DHT22;53289;45.602;11.904;2022-09-02T00:18:59;18.70;76.70
64817;DHT22;53289;45.602;11.904;2022-09-02T00:21:28;18.60;76.60
64817;DHT22;53289;45.602;11.904;2022-09-02T00:23:54;18.60;76.50
64817;DHT22;53289;45.602;11.904;2022-09-02T00:26:20;18.60;76.50
64817;DHT22;53289;45.602;11.904;2022-09-02T00:28:46;18.60;76.40
64817;DHT22;53289;45.602;11.904;2022-09-02T00:31:13;18.50;76.50
64817;DHT22;53289;45.602;11.904;2022-09-02T00:33:39;18.50;76.50
64817;DHT22;53289;45.602;11.904;2022-09-02T00:36:06;18.40;76.50
64817;DHT22;53289;45.602;11.904;2022-09-02T00:38:34;18.40;76.70
64817;DHT22;53289;45.602;11.904;2022-09-02T00:41:03;18.40;76.80
64817;DHT22;53289;45.602;11.904;2022-09-02T00:43:53;18.40;77.60
64817;DHT22;53289;45.602;11.904;2022-09-02T00:46:23;18.40;78.70
64817;DHT22;53289;45.602;11.904;2022-09-02T00:51:27;18.30;77.90
64817;DHT22;53289;45.602;11.904;2022-09-02T00:53:55;18.30;77.50
64817;DHT22;53289;45.602;11.904;2022-09-02T00:56:27;18.30;77.50
64817;DHT22;53289;45.602;11.904;2022-09-02T00:58:54;18.30;77.40
64817;DHT22;53289;45.602;11.904;2022-09-02T01:01:21;18.30;77.60
64817;DHT22;53289;45.602;11.904;2022-09-02T01:03:48;18.30;77.40
64817;DHT22;53289;45.602;11.904;2022-09-02T01:06:19;18.30;77.50
64817;DHT22;53289;45.602;11.904;2022-09-02T01:08:50;18.20;77.60
64817;DHT22;53289;45.602;11.904;2022-09-02T01:11:19;18.20;78.10
64817;DHT22;53289;45.602;11.904;2022-09-02T01:13:46;18.20;77.70
64817;DHT22;53289;45.602;11.904;2022-09-02T01:16:21;18.10;77.90
64817;DHT22;53289;45.602;11.904;2022-09-02T01:18:52;18.10;78.10
64817;DHT22;53289;45.602;11.904;2022-09-02T01:21:18;18.10;77.80
64817;DHT22;53289;45.602;11.904;2022-09-02T01:23:46;18.00;77.80
64817;DHT22;53289;45.602;11.904;2022-09-02T01:26:12;18.00;77.70
64817;DHT22;53289;45.602;11.904;2022-09-02T01:28:38;18.00;77.70
64817;DHT22;53289;45.602;11.904;2022-09-02T01:31:04;18.00;77.80
64817;DHT22;53289;45.602;11.904;2022-09-02T01:33:31;18.00;77.80
64817;DHT22;53289;45.602;11.904;2022-09-02T01:35:57;18.00;77.70
64817;DHT22;53289;45.602;11.904;2022-09-02T01:38:24;17.90;77.70
64817;DHT22;53289;45.602;11.904;2022-09-02T01:40:51;17.90;77.80
64817;DHT22;53289;45.602;11.904;2022-09-02T01:43:22;17.90;77.80
64817;DHT22;53289;45.602;11.904;2022-09-02T01:45:52;17.90;77.70
64817;DHT22;53289;45.602;11.904;2022-09-02T01:48:19;17.90;77.60
64817;DHT22;53289;45.602;11.904;2022-09-02T01:50:52;17.90;77.70
64817;DHT22;53289;45.602;11.904;2022-09-02T01:53:19;17.90;77.60
64817;DHT22;53289;45.602;11.904;2022-09-02T01:55:46;17.90;77.60
64817;DHT22;53289;45.602;11.904;2022-09-02T01:58:12;17.90;77.60
64817;DHT22;53289;45.602;11.904;2022-09-02T02:00:38;17.90;77.60
64817;DHT22;53289;45.602;11.904;2022-09-02T02:03:04;17.90;77.70
64817;DHT22;53289;45.602;11.904;2022-09-02T02:05:31;17.90;77.70
64817;DHT22;53289;45.602;11.904;2022-09-02T02:07:59;17.90;77.70
64817;DHT22;53289;45.602;11.904;2022-09-02T02:10:25;17.90;77.60
64817;DHT22;53289;45.602;11.904;2022-09-02T02:12:51;17.90;77.60
64817;DHT22;53289;45.602;11.904;2022-09-02T02:15:18;17.90;77.50
64817;DHT22;53289;45.602;11.904;2022-09-02T02:17:45;17.90;77.60
64817;DHT22;53289;45.602;11.904;2022-09-02T02:20:16;17.90;77.60
64817;DHT22;53289;45.602;11.904;2022-09-02T02:22:43;17.90;77.50
64817;DHT22;53289;45.602;11.904;2022-09-02T02:25:10;17.90;77.50
64817;DHT22;53289;45.602;11.904;2022-09-02T02:27:36;17.90;78.30
64817;DHT22;53289;45.602;11.904;2022-09-02T02:30:05;17.90;78.40
64817;DHT22;53289;45.602;11.904;2022-09-02T02:32:31;17.90;78.40
64817;DHT22;53289;45.602;11.904;2022-09-02T02:34:57;17.90;78.50
64817;DHT22;53289;45.602;11.904;2022-09-02T02:37:24;17.80;78.20
64817;DHT22;53289;45.602;11.904;2022-09-02T02:39:50;17.80;78.40
64817;DHT22;53289;45.602;11.904;2022-09-02T02:42:16;17.80;78.40
64817;DHT22;53289;45.602;11.904;2022-09-02T02:44:42;17.80;78.40
64817;DHT22;53289;45.602;11.904;2022-09-02T02:47:08;17.70;78.50
64817;DHT22;53289;45.602;11.904;2022-09-02T02:49:39;17.70;78.40
64817;DHT22;53289;45.602;11.904;2022-09-02T02:52:07;17.70;78.40
64817;DHT22;53289;45.602;11.904;2022-09-02T02:54:33;17.70;78.60
64817;DHT22;53289;45.602;11.904;2022-09-02T02:56:59;17.70;80.20
64817;DHT22;53289;45.602;11.904;2022-09-02T02:59:25;17.60;81.00
64817;DHT22;53289;45.602;11.904;2022-09-02T03:01:52;17.60;79.80
64817;DHT22;53289;45.602;11.904;2022-09-02T03:04:18;17.60;80.60
64817;DHT22;53289;45.602;11.904;2022-09-02T03:06:43;17.60;80.60
64817;DHT22;53289;45.602;11.904;2022-09-02T03:09:09;17.50;80.80
64817;DHT22;53289;45.602;11.904;2022-09-02T03:11:35;17.40;81.00
64817;DHT22;53289;45.602;11.904;2022-09-02T03:14:02;17.40;81.30
64817;DHT22;53289;45.602;11.904;2022-09-02T03:16:28;17.40;81.50
64817;DHT22;53289;45.602;11.904;2022-09-02T03:18:54;17.40;81.50
64817;DHT22;53289;45.602;11.904;2022-09-02T03:21:20;17.30;82.40
64817;DHT22;53289;45.602;11.904;2022-09-02T03:23:47;17.30;81.60
64817;DHT22;53289;45.602;11.904;2022-09-02T03:26:17;17.30;81.40
64817;DHT22;53289;45.602;11.904;2022-09-02T03:28:44;17.20;81.60
64817;DHT22;53289;45.602;11.904;2022-09-02T03:31:15;17.20;81.40
64817;DHT22;53289;45.602;11.904;2022-09-02T03:33:42;17.10;81.40
64817;DHT22;53289;45.602;11.904;2022-09-02T03:36:17;17.10;81.60
64817;DHT22;53289;45.602;11.904;2022-09-02T03:38:44;17.10;81.40
64817;DHT22;53289;45.602;11.904;2022-09-02T03:41:10;17.10;82.10
64817;DHT22;53289;45.602;11.904;2022-09-02T03:43:36;17.00;83.20
64817;DHT22;53289;45.602;11.904;2022-09-02T03:46:01;16.90;83.00
64817;DHT22;53289;45.602;11.904;2022-09-02T03:48:27;16.90;82.70
64817;DHT22;53289;45.602;11.904;2022-09-02T03:50:55;16.90;81.90
64817;DHT22;53289;45.602;11.904;2022-09-02T03:53:21;16.90;81.90
64817;DHT22;53289;45.602;11.904;2022-09-02T03:55:47;16.90;82.00
64817;DHT22;53289;45.602;11.904;2022-09-02T03:58:13;16.90;82.10
64817;DHT22;53289;45.602;11.904;2022-09-02T04:00:39;16.90;81.90
64817;DHT22;53289;45.602;11.904;2022-09-02T04:03:06;16.90;81.80
64817;DHT22;53289;45.602;11.904;2022-09-02T04:05:32;16.90;81.70
64817;DHT22;53289;45.602;11.904;2022-09-02T04:08:01;16.90;81.90
64817;DHT22;53289;45.602;11.904;2022-09-02T04:10:27;16.90;81.30
64817;DHT22;53289;45.602;11.904;2022-09-02T04:12:53;16.80;81.30
64817;DHT22;53289;45.602;11.904;2022-09-02T04:15:20;16.80;81.30
64817;DHT22;53289;45.602;11.904;2022-09-02T04:17:46;16.80;81.40
64817;DHT22;53289;45.602;11.904;2022-09-02T04:20:13;16.80;81.40
64817;DHT22;53289;45.602;11.904;2022-09-02T04:22:40;16.70;81.20
64817;DHT22;53289;45.602;11.904;2022-09-02T04:25:07;16.70;81.10
64817;DHT22;53289;45.602;11.904;2022-09-02T04:27:34;16.70;81.00
64817;DHT22;53289;45.602;11.904;2022-09-02T04:30:01;16.70;81.00
64817;DHT22;53289;45.602;11.904;2022-09-02T04:32:27;16.60;81.10
64817;DHT22;53289;45.602;11.904;2022-09-02T04:34:53;16.60;81.00
64817;DHT22;53289;45.602;11.904;2022-09-02T04:37:19;16.60;80.90
64817;DHT22;53289;45.602;11.904;2022-09-02T04:39:45;16.60;80.80
64817;DHT22;53289;45.602;11.904;2022-09-02T04:42:11;16.60;80.80
64817;DHT22;53289;45.602;11.904;2022-09-02T04:44:37;16.50;80.70
64817;DHT22;53289;45.602;11.904;2022-09-02T04:47:03;16.60;80.60
64817;DHT22;53289;45.602;11.904;2022-09-02T04:49:29;16.50;80.60
64817;DHT22;53289;45.602;11.904;2022-09-02T04:51:58;16.50;80.30
64817;DHT22;53289;45.602;11.904;2022-09-02T04:54:24;16.50;80.30
64817;DHT22;53289;45.602;11.904;2022-09-02T04:56:50;16.60;80.20
64817;DHT22;53289;45.602;11.904;2022-09-02T04:59:16;16.60;80.10
64817;DHT22;53289;45.602;11.904;2022-09-02T05:01:42;16.60;80.20
64817;DHT22;53289;45.602;11.904;2022-09-02T05:04:08;16.60;80.30
64817;DHT22;53289;45.602;11.904;2022-09-02T05:06:35;16.60;80.30
64817;DHT22;53289;45.602;11.904;2022-09-02T05:09:03;16.50;80.50
64817;DHT22;53289;45.602;11.904;2022-09-02T05:11:30;16.50;80.30
64817;DHT22;53289;45.602;11.904;2022-09-02T05:13:58;16.40;80.30
64817;DHT22;53289;45.602;11.904;2022-09-02T05:16:28;16.40;80.30
64817;DHT22;53289;45.602;11.904;2022-09-02T05:18:55;16.50;80.30
64817;DHT22;53289;45.602;11.904;2022-09-02T05:21:22;16.50;80.50
64817;DHT22;53289;45.602;11.904;2022-09-02T05:23:49;16.50;80.30
64817;DHT22;53289;45.602;11.904;2022-09-02T05:26:16;16.50;80.20
64817;DHT22;53289;45.602;11.904;2022-09-02T05:28:43;16.50;80.00
64817;DHT22;53289;45.602;11.904;2022-09-02T05:31:15;16.60;80.00
64817;DHT22;53289;45.602;11.904;2022-09-02T05:33:42;16.60;79.80
64817;DHT22;53289;45.602;11.904;2022-09-02T05:36:15;16.70;79.70
64817;DHT22;53289;45.602;11.904;2022-09-02T05:38:43;16.90;79.70
64817;DHT22;53289;45.602;11.904;2022-09-02T05:41:15;17.00;79.50
64817;DHT22;53289;45.602;11.904;2022-09-02T05:43:43;17.20;79.30
64817;DHT22;53289;45.602;11.904;2022-09-02T05:46:12;17.40;79.10
64817;DHT22;53289;45.602;11.904;2022-09-02T05:48:39;17.60;78.70
64817;DHT22;53289;45.602;11.904;2022-09-02T05:51:24;17.90;78.40
64817;DHT22;53289;45.602;11.904;2022-09-02T05:53:56;18.20;77.50
64817;DHT22;53289;45.602;11.904;2022-09-02T05:56:22;18.40;77.40
64817;DHT22;53289;45.602;11.904;2022-09-02T05:58:50;18.60;76.60
64817;DHT22;53289;45.602;11.904;2022-09-02T06:01:18;18.80;76.70
64817;DHT22;53289;45.602;11.904;2022-09-02T06:03:46;19.00;77.00
64817;DHT22;53289;45.602;11.904;2022-09-02T06:06:12;19.20;76.30
64817;DHT22;53289;45.602;11.904;2022-09-02T06:08:38;19.30;75.40
64817;DHT22;53289;45.602;11.904;2022-09-02T06:11:08;19.30;74.80
64817;DHT22;53289;45.602;11.904;2022-09-02T06:13:37;19.40;74.90
64817;DHT22;53289;45.602;11.904;2022-09-02T06:16:04;19.50;74.50
64817;DHT22;53289;45.602;11.904;2022-09-02T06:18:34;19.50;74.40
64817;DHT22;53289;45.602;11.904;2022-09-02T06:21:01;19.70;73.60
64817;DHT22;53289;45.602;11.904;2022-09-02T06:23:27;19.70;73.80
64817;DHT22;53289;45.602;11.904;2022-09-02T06:25:53;19.80;73.70
64817;DHT22;53289;45.602;11.904;2022-09-02T06:28:19;19.80;73.20
64817;DHT22;53289;45.602;11.904;2022-09-02T06:30:46;19.70;73.20
64817;DHT22;53289;45.602;11.904;2022-09-02T06:33:13;19.70;72.90
64817;DHT22;53289;45.602;11.904;2022-09-02T06:35:42;19.70;72.80
64817;DHT22;53289;45.602;11.904;2022-09-02T06:38:10;19.70;72.80
64817;DHT22;53289;45.602;11.904;2022-09-02T06:40:44;19.70;72.70
64817;DHT22;53289;45.602;11.904;2022-09-02T06:43:10;19.70;72.80
64817;DHT22;53289;45.602;11.904;2022-09-02T06:45:40;19.80;72.90
64817;DHT22;53289;45.602;11.904;2022-09-02T06:48:06;19.80;72.40
64817;DHT22;53289;45.602;11.904;2022-09-02T06:50:33;19.80;72.00
64817;DHT22;53289;45.602;11.904;2022-09-02T06:53:02;19.90;72.30
64817;DHT22;53289;45.602;11.904;2022-09-02T06:55:30;19.90;72.00
64817;DHT22;53289;45.602;11.904;2022-09-02T06:57:56;19.90;72.00
64817;DHT22;53289;45.602;11.904;2022-09-02T07:00:22;20.10;71.20
64817;DHT22;53289;45.602;11.904;2022-09-02T07:02:48;20.20;71.10
64817;DHT22;53289;45.602;11.904;2022-09-02T07:05:34;20.30;70.70
64817;DHT22;53289;45.602;11.904;2022-09-02T07:08:00;20.40;70.90
64817;DHT22;53289;45.602;11.904;2022-09-02T07:10:26;20.50;70.70
64817;DHT22;53289;45.602;11.904;2022-09-02T07:12:51;20.50;70.20
64817;DHT22;53289;45.602;11.904;2022-09-02T07:15:18;20.60;69.90
64817;DHT22;53289;45.602;11.904;2022-09-02T07:17:44;20.60;69.60
64817;DHT22;53289;45.602;11.904;2022-09-02T07:20:10;20.70;69.40
64817;DHT22;53289;45.602;11.904;2022-09-02T07:22:37;20.80;68.60
64817;DHT22;53289;45.602;11.904;2022-09-02T07:25:04;20.90;68.30
64817;DHT22;53289;45.602;11.904;2022-09-02T07:27:36;21.20;68.00
64817;DHT22;53289;45.602;11.904;2022-09-02T07:30:04;21.40;67.60
64817;DHT22;53289;45.602;11.904;2022-09-02T07:32:31;21.60;65.10
64817;DHT22;53289;45.602;11.904;2022-09-02T07:34:57;21.70;64.00
64817;DHT22;53289;45.602;11.904;2022-09-02T07:37:23;21.80;64.10
64817;DHT22;53289;45.602;11.904;2022-09-02T07:39:49;21.80;64.00
64817;DHT22;53289;45.602;11.904;2022-09-02T07:42:15;21.90;61.30
64817;DHT22;53289;45.602;11.904;2022-09-02T07:44:42;22.00;59.90
64817;DHT22;53289;45.602;11.904;2022-09-02T07:47:08;22.10;60.40
64817;DHT22;53289;45.602;11.904;2022-09-02T07:49:34;22.20;60.90
64817;DHT22;53289;45.602;11.904;2022-09-02T07:52:00;22.40;60.90
64817;DHT22;53289;45.602;11.904;2022-09-02T07:54:26;22.60;60.30
64817;DHT22;53289;45.602;11.904;2022-09-02T07:56:53;22.80;60.00
64817;DHT22;53289;45.602;11.904;2022-09-02T07:59:19;23.00;58.10
64817;DHT22;53289;45.602;11.904;2022-09-02T08:01:47;23.40;58.70
64817;DHT22;53289;45.602;11.904;2022-09-02T08:04:15;23.70;57.90
64817;DHT22;53289;45.602;11.904;2022-09-02T08:06:42;24.00;57.90
64817;DHT22;53289;45.602;11.904;2022-09-02T08:09:10;24.40;55.20
64817;DHT22;53289;45.602;11.904;2022-09-02T08:11:38;24.70;56.00
64817;DHT22;53289;45.602;11.904;2022-09-02T08:14:09;24.90;53.80
64817;DHT22;53289;45.602;11.904;2022-09-02T08:16:37;25.10;52.50
64817;DHT22;53289;45.602;11.904;2022-09-02T08:19:04;25.30;52.60
64817;DHT22;53289;45.602;11.904;2022-09-02T08:21:31;25.60;52.00
64817;DHT22;53289;45.602;11.904;2022-09-02T08:23:57;25.80;50.90
64817;DHT22;53289;45.602;11.904;2022-09-02T08:26:25;25.90;49.60
64817;DHT22;53289;45.602;11.904;2022-09-02T08:28:54;26.00;48.40
64817;DHT22;53289;45.602;11.904;2022-09-02T08:31:21;26.20;48.50
64817;DHT22;53289;45.602;11.904;2022-09-02T08:33:47;26.30;48.70
64817;DHT22;53289;45.602;11.904;2022-09-02T08:36:13;26.40;48.70
64817;DHT22;53289;45.602;11.904;2022-09-02T08:38:41;26.50;47.70
64817;DHT22;53289;45.602;11.904;2022-09-02T08:41:31;26.80;47.00
64817;DHT22;53289;45.602;11.904;2022-09-02T08:44:00;26.90;45.80
64817;DHT22;53289;45.602;11.904;2022-09-02T08:46:29;27.10;44.60
64817;DHT22;53289;45.602;11.904;2022-09-02T08:49:02;27.40;44.90
64817;DHT22;53289;45.602;11.904;2022-09-02T08:51:36;27.70;43.40
64817;DHT22;53289;45.602;11.904;2022-09-02T08:54:07;27.90;41.10
64817;DHT22;53289;45.602;11.904;2022-09-02T08:56:34;28.10;41.70
64817;DHT22;53289;45.602;11.904;2022-09-02T08:59:02;28.40;41.30
64817;DHT22;53289;45.602;11.904;2022-09-02T09:01:49;28.40;41.40
64817;DHT22;53289;45.602;11.904;2022-09-02T09:16:04;28.90;40.00
64817;DHT22;53289;45.602;11.904;2022-09-02T09:18:15;29.30;40.00
64817;DHT22;53289;45.602;11.904;2022-09-02T09:20:43;29.50;38.80
64817;DHT22;53289;45.602;11.904;2022-09-02T09:23:28;29.90;39.30
64817;DHT22;53289;45.602;11.904;2022-09-02T09:28:35;29.90;37.10
64817;DHT22;53289;45.602;11.904;2022-09-02T09:31:02;30.00;37.80
64817;DHT22;53289;45.602;11.904;2022-09-02T09:33:27;30.20;37.30
64817;DHT22;53289;45.602;11.904;2022-09-02T09:35:54;30.30;35.90
64817;DHT22;53289;45.602;11.904;2022-09-02T09:38:29;30.40;37.40
64817;DHT22;53289;45.602;11.904;2022-09-02T09:41:29;30.20;35.00
64817;DHT22;53289;45.602;11.904;2022-09-02T09:43:55;30.40;36.10
64817;DHT22;53289;45.602;11.904;2022-09-02T09:46:28;30.20;36.50
64817;DHT22;53289;45.602;11.904;2022-09-02T09:48:57;30.10;36.10
64817;DHT22;53289;45.602;11.904;2022-09-02T09:51:23;30.10;36.10
64817;DHT22;53289;45.602;11.904;2022-09-02T09:53:49;30.00;35.50
64817;DHT22;53289;45.602;11.904;2022-09-02T09:58:44;29.70;36.40
64817;DHT22;53289;45.602;11.904;2022-09-02T10:01:14;30.10;36.00
64817;DHT22;53289;45.602;11.904;2022-09-02T10:03:50;30.40;36.30
64817;DHT22;53289;45.602;11.904;2022-09-02T10:06:41;30.70;36.50
64817;DHT22;53289;45.602;11.904;2022-09-02T10:14:20;30.40;34.20
64817;DHT22;53289;45.602;11.904;2022-09-02T10:22:31;31.70;32.20
64817;DHT22;53289;45.602;11.904;2022-09-02T10:25:25;32.20;32.70
64817;DHT22;53289;45.602;11.904;2022-09-02T10:28:24;32.60;31.20
64817;DHT22;53289;45.602;11.904;2022-09-02T10:36:12;33.40;31.40
64817;DHT22;53289;45.602;11.904;2022-09-02T10:38:46;33.40;31.90
64817;DHT22;53289;45.602;11.904;2022-09-02T10:52:04;33.30;32.80
64817;DHT22;53289;45.602;11.904;2022-09-02T10:57:17;32.90;33.30
64817;DHT22;53289;45.602;11.904;2022-09-02T10:59:53;32.60;33.00
64817;DHT22;53289;45.602;11.904;2022-09-02T11:02:33;32.50;32.80
64817;DHT22;53289;45.602;11.904;2022-09-02T11:05:18;32.50;32.90
64817;DHT22;53289;45.602;11.904;2022-09-02T11:07:48;32.60;32.50
64817;DHT22;53289;45.602;11.904;2022-09-02T11:10:40;32.90;31.80
64817;DHT22;53289;45.602;11.904;2022-09-02T11:13:25;33.50;32.10
64817;DHT22;53289;45.602;11.904;2022-09-02T11:15:55;34.10;29.50
64817;DHT22;53289;45.602;11.904;2022-09-02T11:18:45;34.60;31.70
64817;DHT22;53289;45.602;11.904;2022-09-02T11:26:48;35.40;28.90
64817;DHT22;53289;45.602;11.904;2022-09-02T11:29:20;35.70;30.50
64817;DHT22;53289;45.602;11.904;2022-09-02T11:32:17;35.90;29.70
64817;DHT22;53289;45.602;11.904;2022-09-02T11:34:55;36.00;29.60
64817;DHT22;53289;45.602;11.904;2022-09-02T11:40:04;36.20;29.60
64817;DHT22;53289;45.602;11.904;2022-09-02T11:56:18;38.10;26.90
64817;DHT22;53289;45.602;11.904;2022-09-02T11:58:50;38.20;26.70
64817;DHT22;53289;45.602;11.904;2022-09-02T12:01:36;38.00;27.30
64817;DHT22;53289;45.602;11.904;2022-09-02T12:04:22;38.10;26.20
64817;DHT22;53289;45.602;11.904;2022-09-02T12:09:43;37.90;27.50
64817;DHT22;53289;45.602;11.904;2022-09-02T12:18:12;38.20;26.00
64817;DHT22;53289;45.602;11.904;2022-09-02T12:25:56;38.80;25.60
64817;DHT22;53289;45.602;11.904;2022-09-02T12:28:28;38.90;25.60
64817;DHT22;53289;45.602;11.904;2022-09-02T12:36:03;38.50;25.50
64817;DHT22;53289;45.602;11.904;2022-09-02T12:38:35;38.40;26.10
64817;DHT22;53289;45.602;11.904;2022-09-02T12:57:07;39.10;24.60
64817;DHT22;53289;45.602;11.904;2022-09-02T12:59:39;39.20;24.80
64817;DHT22;53289;45.602;11.904;2022-09-02T13:16:12;38.20;26.70
64817;DHT22;53289;45.602;11.904;2022-09-02T13:32:26;36.90;27.60
64817;DHT22;53289;45.602;11.904;2022-09-02T13:34:56;36.80;28.40
64817;DHT22;53289;45.602;11.904;2022-09-02T13:39:57;36.90;28.20
64817;DHT22;53289;45.602;11.904;2022-09-02T13:42:26;36.80;28.50
64817;DHT22;53289;45.602;11.904;2022-09-02T13:45:13;36.80;28.70
64817;DHT22;53289;45.602;11.904;2022-09-02T13:47:44;37.00;28.00
64817;DHT22;53289;45.602;11.904;2022-09-02T13:50:22;37.10;28.20
64817;DHT22;53289;45.602;11.904;2022-09-02T13:52:55;37.20;27.90
64817;DHT22;53289;45.602;11.904;2022-09-02T13:55:23;37.20;27.90
64817;DHT22;53289;45.602;11.904;2022-09-02T14:00:32;36.10;28.60
64817;DHT22;53289;45.602;11.904;2022-09-02T14:05:32;34.90;30.40
64817;DHT22;53289;45.602;11.904;2022-09-02T14:07:59;34.50;31.10
64817;DHT22;53289;45.602;11.904;2022-09-02T14:10:27;34.40;31.50
64817;DHT22;53289;45.602;11.904;2022-09-02T14:12:55;34.50;31.60
64817;DHT22;53289;45.602;11.904;2022-09-02T14:15:27;34.50;31.30
64817;DHT22;53289;45.602;11.904;2022-09-02T14:18:18;34.40;30.70
64817;DHT22;53289;45.602;11.904;2022-09-02T14:23:31;33.70;31.20
64817;DHT22;53289;45.602;11.904;2022-09-02T14:26:01;33.50;31.80
64817;DHT22;53289;45.602;11.904;2022-09-02T14:28:30;33.70;31.60
64817;DHT22;53289;45.602;11.904;2022-09-02T14:31:07;33.90;31.60
64817;DHT22;53289;45.602;11.904;2022-09-02T14:33:46;34.30;31.10
64817;DHT22;53289;45.602;11.904;2022-09-02T14:38:52;34.70;30.40
64817;DHT22;53289;45.602;11.904;2022-09-02T14:41:29;34.80;30.10
64817;DHT22;53289;45.602;11.904;2022-09-02T14:44:31;34.80;29.90
64817;DHT22;53289;45.602;11.904;2022-09-02T14:47:06;34.80;29.80
64817;DHT22;53289;45.602;11.904;2022-09-02T14:49:45;34.80;30.30
64817;DHT22;53289;45.602;11.904;2022-09-02T14:52:20;35.00;30.10
64817;DHT22;53289;45.602;11.904;2022-09-02T14:54:50;35.10;30.30
64817;DHT22;53289;45.602;11.904;2022-09-02T14:59:58;35.40;29.60
64817;DHT22;53289;45.602;11.904;2022-09-02T15:04:55;35.40;29.60
64817;DHT22;53289;45.602;11.904;2022-09-02T15:07:22;35.40;29.70
64817;DHT22;53289;45.602;11.904;2022-09-02T15:09:49;35.30;30.10
64817;DHT22;53289;45.602;11.904;2022-09-02T15:12:24;35.30;30.20
64817;DHT22;53289;45.602;11.904;2022-09-02T15:14:53;35.10;30.20
64817;DHT22;53289;45.602;11.904;2022-09-02T15:17:19;34.70;30.40
64817;DHT22;53289;45.602;11.904;2022-09-02T15:19:46;34.30;31.20
64817;DHT22;53289;45.602;11.904;2022-09-02T15:22:13;33.80;32.00
64817;DHT22;53289;45.602;11.904;2022-09-02T15:24:40;33.40;32.50
64817;DHT22;53289;45.602;11.904;2022-09-02T15:27:12;33.20;32.80
64817;DHT22;53289;45.602;11.904;2022-09-02T15:29:38;32.90;32.90
64817;DHT22;53289;45.602;11.904;2022-09-02T15:32:05;32.80;33.00
64817;DHT22;53289;45.602;11.904;2022-09-02T15:34:32;32.60;33.60
64817;DHT22;53289;45.602;11.904;2022-09-02T15:37:00;32.70;33.50
64817;DHT22;53289;45.602;11.904;2022-09-02T15:39:27;32.80;33.10
64817;DHT22;53289;45.602;11.904;2022-09-02T15:41:54;33.00;32.60
64817;DHT22;53289;45.602;11.904;2022-09-02T15:44:21;33.00;32.60
64817;DHT22;53289;45.602;11.904;2022-09-02T15:46:51;33.00;32.70
64817;DHT22;53289;45.602;11.904;2022-09-02T15:49:18;32.90;32.50
64817;DHT22;53289;45.602;11.904;2022-09-02T15:51:45;32.60;32.90
64817;DHT22;53289;45.602;11.904;2022-09-02T15:54:14;32.30;33.20
64817;DHT22;53289;45.602;11.904;2022-09-02T15:56:41;32.10;33.70
64817;DHT22;53289;45.602;11.904;2022-09-02T15:59:16;32.00;34.10
64817;DHT22;53289;45.602;11.904;2022-09-02T16:01:44;32.00;34.10
64817;DHT22;53289;45.602;11.904;2022-09-02T16:04:11;31.90;34.30
64817;DHT22;53289;45.602;11.904;2022-09-02T16:06:40;31.90;34.20
64817;DHT22;53289;45.602;11.904;2022-09-02T16:09:08;31.90;34.40
64817;DHT22;53289;45.602;11.904;2022-09-02T16:11:40;31.90;34.60
64817;DHT22;53289;45.602;11.904;2022-09-02T16:14:07;31.80;35.00
64817;DHT22;53289;45.602;11.904;2022-09-02T16:16:33;31.80;34.80
64817;DHT22;53289;45.602;11.904;2022-09-02T16:19:01;31.50;35.00
64817;DHT22;53289;45.602;11.904;2022-09-02T16:21:27;31.30;35.50
64817;DHT22;53289;45.602;11.904;2022-09-02T16:23:54;31.00;35.50
64817;DHT22;53289;45.602;11.904;2022-09-02T16:26:21;30.60;35.80
64817;DHT22;53289;45.602;11.904;2022-09-02T16:28:50;30.40;36.20
64817;DHT22;53289;45.602;11.904;2022-09-02T16:31:18;30.20;36.70
64817;DHT22;53289;45.602;11.904;2022-09-02T16:34:04;30.00;36.80
64817;DHT22;53289;45.602;11.904;2022-09-02T16:36:32;29.90;37.00
64817;DHT22;53289;45.602;11.904;2022-09-02T16:38:59;29.70;37.30
64817;DHT22;53289;45.602;11.904;2022-09-02T16:41:34;29.50;37.70
64817;DHT22;53289;45.602;11.904;2022-09-02T16:44:06;29.40;37.90
64817;DHT22;53289;45.602;11.904;2022-09-02T16:46:34;29.40;37.90
64817;DHT22;53289;45.602;11.904;2022-09-02T16:49:00;29.60;37.80
64817;DHT22;53289;45.602;11.904;2022-09-02T16:51:28;30.00;37.20
64817;DHT22;53289;45.602;11.904;2022-09-02T16:53:57;30.40;36.60
64817;DHT22;53289;45.602;11.904;2022-09-02T16:56:23;30.70;36.20
64817;DHT22;53289;45.602;11.904;2022-09-02T16:58:51;31.20;35.80
64817;DHT22;53289;45.602;11.904;2022-09-02T17:01:18;31.50;35.60
64817;DHT22;53289;45.602;11.904;2022-09-02T17:03:46;31.90;35.80
64817;DHT22;53289;45.602;11.904;2022-09-02T17:06:13;32.20;36.10
64817;DHT22;53289;45.602;11.904;2022-09-02T17:08:39;32.40;36.10
64817;DHT22;53289;45.602;11.904;2022-09-02T17:11:26;32.50;36.10
64817;DHT22;53289;45.602;11.904;2022-09-02T17:13:58;32.60;36.90
64817;DHT22;53289;45.602;11.904;2022-09-02T17:16:32;32.50;36.50
64817;DHT22;53289;45.602;11.904;2022-09-02T17:18:58;32.40;36.90
64817;DHT22;53289;45.602;11.904;2022-09-02T17:21:43;32.20;37.20
64817;DHT22;53289;45.602;11.904;2022-09-02T17:24:11;31.90;37.40
64817;DHT22;53289;45.602;11.904;2022-09-02T17:26:39;31.50;38.00
64817;DHT22;53289;45.602;11.904;2022-09-02T17:29:11;31.00;39.20
64817;DHT22;53289;45.602;11.904;2022-09-02T17:31:37;30.40;40.10
64817;DHT22;53289;45.602;11.904;2022-09-02T17:34:07;29.70;41.00
64817;DHT22;53289;45.602;11.904;2022-09-02T17:36:35;29.10;41.50
64817;DHT22;53289;45.602;11.904;2022-09-02T17:39:06;28.70;42.50
64817;DHT22;53289;45.602;11.904;2022-09-02T17:41:32;28.20;43.20
64817;DHT22;53289;45.602;11.904;2022-09-02T17:44:17;27.80;43.90
64817;DHT22;53289;45.602;11.904;2022-09-02T17:46:44;27.40;44.70
64817;DHT22;53289;45.602;11.904;2022-09-02T17:49:11;27.00;45.50
64817;DHT22;53289;45.602;11.904;2022-09-02T17:51:38;26.80;46.60
64817;DHT22;53289;45.602;11.904;2022-09-02T17:54:05;26.40;47.60
64817;DHT22;53289;45.602;11.904;2022-09-02T18:02:07;25.50;50.00
64817;DHT22;53289;45.602;11.904;2022-09-02T18:05:05;25.30;50.10
64817;DHT22;53289;45.602;11.904;2022-09-02T18:07:41;25.00;49.90